• Join FlightAware (Why Join?)
  • Login
  • US Flag 
07:56AM EDT


 

Airport Tracker/Info


-or-


 

Live Flight TrackerFlight Track Log ✈ LXJ342 ✈ 29-Aug-2013 ✈ KMKC - KMVY

Flight Track Log - Related Links

Times and Time Zones

All times are in EDT time to prevent confusion due to time zone crossing. See the LXJ342 flight status page for this flight to view local times or setup timezone preferences in your user account.

Time Position Orientation Groundspeed Altitude Reporting Facility
EDT Latitude Longitude Course Direction KTS MPH feet Rate Location/Type
01:46PM 39.1000 -94.6000 234° Southwest 171 197 1,500  Level Kansas City TRACON
01:47PM 39.0606 -94.6689 234° Southwest 205 236 4,600 2,220 Climbing Kansas City Center
01:48PM 39.0131 -94.6147 138° Southeast 264 304 7,100 2,460 Climbing Kansas City Center
01:49PM 39.0306 -94.5178 77° East 289 333 9,800 2,700 Climbing Kansas City Center
01:50PM 39.0517 -94.3908 78° East 327 376 12,700 2,520 Climbing Kansas City Center
01:51PM 39.0717 -94.2703 78° East 354 407 15,100 2,400 Climbing Kansas City Center
01:52PM 39.0936 -94.1244 79° East 372 428 17,800 2,220 Climbing Kansas City Center
01:53PM 39.0761 -93.9961 100° East 379 436 19,700 1,980 Climbing Kansas City Center
01:54PM 39.0536 -93.8417 101° East 393 452 21,900 1,740 Climbing Kansas City Center
01:56PM 39.0342 -93.7031 100° East 409 471 23,300 1,500 Climbing Kansas City Center
01:57PM 39.0100 -93.5364 101° East 423 487 25,000 1,500 Climbing Kansas City Center
01:58PM 38.9886 -93.3831 100° East 423 487 26,500 1,260 Climbing Kansas City Center
01:59PM 38.9658 -93.2328 101° East 426 490 27,700 1,080 Climbing Kansas City Center
02:00PM 38.9417 -93.0736 101° East 441 507 28,800 960 Climbing Kansas City Center
02:01PM 38.9172 -92.9108 101° East 457 526 29,700 900 Climbing Kansas City Center
02:02PM 38.8928 -92.7497 101° East 458 527 30,700 960 Climbing Kansas City Center
02:03PM 38.8683 -92.5856 101° East 462 532 31,700 960 Climbing Kansas City Center
02:04PM 38.8425 -92.4189 101° East 469 540 32,700 1,020 Climbing Kansas City Center
02:05PM 38.8133 -92.2175 100° East 474 545 33,900 1,020 Climbing Kansas City Center
02:06PM 38.8167 -92.0483 88° East 471 542 34,900 960 Climbing Kansas City Center
02:07PM 38.8222 -91.8819 87° East 468 539 35,900 540 Climbing Kansas City Center
02:08PM 38.8278 -91.7150 88° East 466 536 36,100 720 Climbing Kansas City Center
02:09PM 38.8319 -91.5417 88° East 471 542 37,400 1,200 Climbing Kansas City Center
02:10PM 38.8361 -91.3817 88° East 458 527 38,600 900 Climbing Kansas City Center
02:11PM 38.8419 -91.2242 87° East 447 514 39,300 540 Climbing Kansas City Center
02:12PM 38.8747 -91.0711 75° East 445 512 39,800 480 Climbing Kansas City Center
02:13PM 38.9161 -90.8875 74° East 446 513 40,400 480 Climbing Kansas City Center
02:14PM 38.9503 -90.7342 74° East 446 513 40,900 240 Climbing Kansas City Center
02:15PM 38.9842 -90.5775 74° East 449 517 41,000  Climbing Kansas City Center
02:16PM 39.0194 -90.4172 74° East 457 526 41,000  Level Kansas City Center
02:17PM 39.0531 -90.2556 75° East 463 533 41,000  Level Kansas City Center
02:18PM 39.0881 -90.0925 74° East 469 540 41,000  Level Kansas City Center
02:19PM 39.1278 -89.9100 74° East 468 539 41,000  Level Kansas City Center
02:20PM 39.1642 -89.7347 75° East 468 539 41,000  Level Kansas City Center
02:21PM 39.1964 -89.5703 76° East 473 544 41,000  Level Kansas City Center
02:22PM 39.2317 -89.4089 74° East 472 543 41,000  Level Kansas City Center
02:23PM 39.2647 -89.2467 75° East 470 541 41,000  Level Kansas City Center
02:24PM 39.2964 -89.0825 76° East 471 542 41,000  Level Kansas City Center
02:25PM 39.3292 -88.9208 75° East 468 539 41,000  Level Kansas City Center
02:27PM 39.3636 -88.7592 75° East 468 539 41,000  Level Kansas City Center
02:28PM 39.4039 -88.5625 75° East 468 539 41,000  Level Kansas City Center
02:29PM 39.4336 -88.3992 77° East 467 537 41,000  Level Kansas City Center
02:30PM 39.4661 -88.2350 76° East 467 537 41,000  Level Kansas City Center
02:30PM 39.4925 -88.1019 76° East 462 532 41,000  Level Indianapolis Center
02:32PM 39.5233 -87.9411 76° East 463 533 41,000  Level Indianapolis Center
02:33PM 39.5547 -87.7811 76° East 460 529 41,000  Level Indianapolis Center
02:34PM 39.5850 -87.6206 76° East 460 529 41,000  Level Indianapolis Center
02:35PM 39.6211 -87.4253 76° East 464 534 41,000  Level Indianapolis Center
02:36PM 39.6517 -87.2644 76° East 461 531 41,000  Level Indianapolis Center
02:37PM 39.6819 -87.1028 76° East 463 533 41,000  Level Indianapolis Center
02:38PM 39.7119 -86.9414 76° East 462 532 41,000  Level Indianapolis Center
02:39PM 39.7417 -86.7789 77° East 463 533 41,000  Level Indianapolis Center
02:40PM 39.7711 -86.6169 77° East 462 532 41,000  Level Indianapolis Center
02:41PM 39.8019 -86.4567 76° East 458 527 41,000  Level Indianapolis Center
02:42PM 39.8189 -86.2514 84° East 472 543 41,000  Level Indianapolis Center
02:43PM 39.8297 -86.0758 85° East 469 540 41,000  Level Indianapolis Center
02:44PM 39.8383 -85.9122 86° East 457 526 41,000  Level Indianapolis Center
02:45PM 39.8478 -85.7475 86° East 457 526 41,000  Level Indianapolis Center
02:46PM 39.8561 -85.5831 86° East 456 525 41,000  Level Indianapolis Center
02:47PM 39.8653 -85.4172 86° East 460 529 41,000  Level Indianapolis Center
02:48PM 39.8744 -85.2494 86° East 465 535 41,000  Level Indianapolis Center
02:49PM 39.8856 -85.0483 86° East 466 536 41,000  Level Indianapolis Center
02:50PM 39.8925 -84.8817 87° East 465 535 41,000  Level Indianapolis Center
02:51PM 39.9008 -84.7139 86° East 466 536 41,000  Level Indianapolis Center
02:52PM 39.9100 -84.5439 86° East 471 542 41,000  Level Indianapolis Center
02:53PM 39.9156 -84.3747 87° East 470 541 41,000  Level Indianapolis Center
02:54PM 39.9242 -84.2050 86° East 472 543 41,000  Level Indianapolis Center
02:55PM 39.9331 -84.0011 87° East 471 542 41,000  Level Indianapolis Center
02:56PM 39.9400 -83.8492 87° East 471 542 41,000  Level Indianapolis Center
02:57PM 39.9447 -83.6781 88° East 472 543 41,000  Level Indianapolis Center
02:58PM 39.9536 -83.4722 87° East 473 544 41,000  Level Indianapolis Center
02:59PM 39.9586 -83.2989 88° East 476 548 41,000  Level Indianapolis Center
03:00PM 39.9639 -83.1281 88° East 473 544 41,000  Level Indianapolis Center
03:02PM 39.9703 -82.9567 87° East 475 547 41,000  Level Indianapolis Center
03:03PM 39.9750 -82.7844 88° East 474 545 41,000  Level Indianapolis Center
03:04PM 39.9800 -82.5942 88° East 475 547 41,000  Level Indianapolis Center
03:05PM 39.9856 -82.4208 88° East 476 548 41,000  Level Indianapolis Center
03:06PM 39.9892 -82.2461 88° East 477 549 41,000  Level Indianapolis Center
03:07PM 39.9936 -82.0725 88° East 476 548 41,000  Level Indianapolis Center
03:08PM 39.9983 -81.8686 88° East 479 551 41,000  Level Indianapolis Center
03:09PM 40.0019 -81.6931 88° East 481 554 41,000  Level Indianapolis Center
03:10PM 40.0053 -81.5158 89° East 484 557 41,000  Level Indianapolis Center
03:11PM 40.0083 -81.3392 89° East 485 558 41,000  Level Indianapolis Center
03:12PM 40.0122 -81.1611 88° East 488 562 41,000  Level Indianapolis Center
03:13PM 40.0142 -80.9842 89° East 486 559 41,000  Level Indianapolis Center
03:14PM 40.0175 -80.7767 89° East 487 560 41,000  Level Indianapolis Center
03:15PM 40.0164 -80.5983 90° East 489 563 41,000  Level Indianapolis Center
03:16PM 40.0147 -80.4208 91° East 487 560 41,000  Level Indianapolis Center
03:17PM 40.0133 -80.2561 91° East 488 562 41,000  Level Indianapolis Center
03:18PM 40.0117 -80.0786 91° East 488 562 41,000  Level Indianapolis Center
03:19PM 40.0097 -79.8658 91° East 489 563 41,000  Level Indianapolis Center
03:20PM 40.0072 -79.6669 91° East 484 557 41,000  Level Cleveland Center
03:21PM 40.0056 -79.4908 91° East 484 557 41,000  Level Cleveland Center
03:22PM 40.0039 -79.3119 91° East 484 557 41,000  Level Cleveland Center
03:23PM 39.9994 -79.1333 92° East 484 557 41,000  Level Cleveland Center
03:24PM 39.9978 -78.9922 91° East 490 564 41,000  Level Cleveland Center
03:25PM 39.9906 -78.7975 93° East 490 564 41,000  Level Cleveland Center
03:26PM 39.9856 -78.6214 92° East 490 564 41,000  Level Cleveland Center
03:27PM 39.9803 -78.4453 92° East 490 564 41,000  Level Cleveland Center
03:29PM 39.9775 -78.1344 91° East 475 547 41,000  Level New York Center
03:30PM 39.9881 -77.9622 85° East 480 552 41,000  Level New York Center
03:31PM 39.9989 -77.7844 85° East 480 552 41,000  Level New York Center
03:32PM 40.0114 -77.6067 85° East 480 552 41,000  Level New York Center
03:33PM 40.0244 -77.4506 84° East 480 552 41,000  Level New York Center
03:34PM 40.0367 -77.2675 85° East 485 558 41,000  Level New York Center
03:35PM 40.0506 -77.0897 84° East 491 565 41,000  Level New York Center
03:36PM 40.0619 -76.9117 85° East 496 571 41,000  Level New York Center
03:37PM 40.0736 -76.7281 85° East 496 571 41,000  Level New York Center
03:38PM 40.0864 -76.5556 84° East 496 571 41,000  Level New York Center
03:39PM 40.0972 -76.3744 85° East 491 565 41,000  Level New York Center
03:40PM 40.1117 -76.1964 84° East 491 565 41,000  Level New York Center
03:41PM 40.1217 -76.0208 86° East 496 571 41,000  Level New York Center
03:42PM 40.1314 -75.8450 86° East 491 565 41,000  Level New York Center
03:43PM 40.1411 -75.6667 86° East 491 565 41,000  Level New York Center
03:44PM 40.1544 -75.4908 84° East 491 565 41,000  Level New York Center
03:45PM 40.1642 -75.2986 86° East 491 565 41,000  Level New York Center
03:46PM 40.1750 -75.1200 85° East 486 559 41,000  Level New York Center
03:47PM 40.1836 -74.9442 86° East 486 559 41,000  Level New York Center
03:48PM 40.1917 -74.7733 86° East 486 559 41,000  Level New York Center
03:49PM 40.2119 -74.6006 81° East 479 551 41,000  Level New York Center
03:50PM 40.2631 -74.4375 68° East 471 542 41,000  Level New York Center
03:52PM 40.3733 -74.0825 68° East 476 548 41,000  Level Boston Center
03:53PM 40.4211 -73.9339 67° East 461 531 41,000  Level Boston Center
03:54PM 40.4711 -73.7739 68° East 456 525 41,000  Level Boston Center
03:55PM 40.5231 -73.6058 68° East 470 541 41,000 -120 Level Boston Center
03:56PM 40.5619 -73.4425 73° East 476 548 40,800 -1,080 Descending Boston Center
03:57PM 40.6008 -73.2683 74° East 476 548 38,900 -1,980 Descending Boston Center
03:58PM 40.6375 -73.1019 74° East 476 548 36,900 -2,100 Descending Boston Center
03:59PM 40.6739 -72.9381 74° East 471 542 34,800 -2,040 Descending Boston Center
04:00PM 40.7078 -72.7822 74° East 459 528 32,900 -1,980 Descending Boston Center
04:01PM 40.7456 -72.6208 73° East 453 521 30,900 -2,040 Descending Boston Center
04:02PM 40.7792 -72.4539 75° East 458 527 28,900 -2,220 Descending Boston Center
04:03PM 40.8164 -72.2783 74° East 458 527 26,500 -2,880 Descending Boston Center
04:04PM 40.8453 -72.1383 75° East 448 516 23,100 -3,000 Descending Boston Center
04:05PM 40.8761 -71.9956 74° East 427 491 20,500 -2,640 Descending Boston Center
04:06PM 40.9067 -71.8333 76° East 412 474 17,900 -2,400 Descending Boston Center
04:07PM 40.9350 -71.6956 75° East 396 456 15,700 -2,340 Descending Boston Center
04:08PM 40.9492 -71.6294 74° East 373 429 14,400 -2,220 Descending Boston Center
04:08PM 40.9611 -71.5689 75° East 372 428 13,500 -2,040 Descending Boston Center
04:09PM 40.9731 -71.5108 75° East 333 383 12,300 -1,920 Descending Boston Center
04:10PM 40.9931 -71.3978 77° East 303 349 10,500 -1,680 Descending Boston Center
04:11PM 41.0192 -71.2875 73° East 280 322 8,800 -1,380 Descending Boston Center
04:12PM 41.0469 -71.1603 74° East 270 311 7,200 -780 Descending Boston Center
04:13PM 41.0667 -71.0800 72° East 265 305 7,000 -600 Descending Boston Center
04:14PM 41.1117 -70.9992 54° Northeast 248 285 6,000 -1,260 Descending Boston Center
04:15PM 41.1483 -70.9378 52° Northeast 237 273 4,500 -1,380 Descending Boston Center
04:16PM 41.1869 -70.8708 53° Northeast 216 249 3,400 -1,140 Descending Boston Center
04:17PM 41.2217 -70.8175 49° Northeast 201 231 2,300 -660 Descending Boston Center
04:18PM 41.2564 -70.7750 43° Northeast 182 209 2,100 -120 Descending Boston Center
04:19PM 41.2831 -70.7386 46° Northeast 155 178 2,100 -120 Level Boston Center
04:20PM 41.3158 -70.7017 40° Northeast 138 159 1,900 -420 Descending Boston Center
04:21PM 41.3403 -70.6761 38° Northeast 127 146 1,300 -660 Descending Boston Center
04:22PM 41.3669 -70.6450 41° Northeast 115 132 600 -480 Descending Boston Center
04:23PM 41.3875 -70.6167 46° Northeast 107 123 400 -240 Descending Boston Center